Time;durP1;ratioP1;P1;durP2;ratioP2;P2;SDS_P1;SDS_P2;PMS_P1;PMS_P2;Temp;Humidity;BMP_temperature;BMP_pressure;BME280_temperature;BME280_humidity;BME280_pressure;Samples;Min_cycle;Max_cycle;Signal;HPM_P1;HPM_P2
2023/01/15 00:01:28;;;;;;;3.55;1.50;;;;;;;8.09;83.33;99464.50;4991619;28;20094;-53
2023/01/15 00:03:55;;;;;;;4.38;1.30;;;;;;;8.11;83.22;99493.22;4983425;28;20533;-60
2023/01/15 00:06:22;;;;;;;2.60;1.52;;;;;;;8.13;83.27;99471.19;4990645;28;20087;-53
2023/01/15 00:08:48;;;;;;;2.42;1.42;;;;;;;8.13;83.07;99479.06;4991583;28;20177;-53
2023/01/15 00:11:14;;;;;;;3.90;1.92;;;;;;;8.14;83.06;99475.50;4987035;28;20195;-53
2023/01/15 00:13:40;;;;;;;9.02;3.13;;;;;;;8.15;83.40;99474.56;4984070;28;20082;-53
2023/01/15 00:16:09;;;;;;;9.70;4.00;;;;;;;8.15;83.04;99468.50;4991207;28;20083;-53
2023/01/15 00:18:34;;;;;;;3.55;1.60;;;;;;;8.15;83.02;99468.50;4986905;28;20098;-53
2023/01/15 00:21:06;;;;;;;2.70;2.30;;;;;;;8.16;82.91;99478.84;4990841;28;20090;-58
2023/01/15 00:29:02;;;;;;;4.43;1.80;;;;;;;8.20;82.93;99461.97;4989540;28;20113;-53
2023/01/15 00:31:30;;;;;;;4.30;1.60;;;;;;;8.21;83.00;99454.94;4983674;28;20087;-52
2023/01/15 00:33:56;;;;;;;3.30;1.30;;;;;;;8.20;82.87;99441.03;4986046;28;20087;-59
2023/01/15 00:36:22;;;;;;;5.63;1.40;;;;;;;8.23;82.88;99432.94;4990358;28;20082;-56
2023/01/15 00:38:47;;;;;;;3.45;1.23;;;;;;;8.25;82.88;99448.56;4989975;28;20197;-52
2023/01/15 00:41:13;;;;;;;3.47;1.27;;;;;;;8.24;83.16;99436.41;4983567;28;20605;-52
2023/01/15 00:43:38;;;;;;;4.35;1.60;;;;;;;8.27;82.86;99440.56;4992387;28;20165;-53
2023/01/15 00:46:04;;;;;;;3.58;1.42;;;;;;;8.27;83.13;99445.81;4984128;28;20102;-55
2023/01/15 00:48:30;;;;;;;6.72;2.55;;;;;;;8.27;83.06;99432.72;4988132;28;20178;-53
2023/01/15 00:50:56;;;;;;;3.58;1.40;;;;;;;8.28;82.89;99429.16;4990335;28;20082;-54
2023/01/15 00:53:22;;;;;;;3.45;1.63;;;;;;;8.32;83.02;99430.63;4999442;28;20077;-58
2023/01/15 00:55:47;;;;;;;4.20;1.20;;;;;;;8.33;82.86;99434.94;4992362;28;20552;-55
2023/01/15 00:58:13;;;;;;;1.85;0.85;;;;;;;8.36;82.95;99435.53;4995798;28;20102;-53
2023/01/15 01:00:38;;;;;;;3.05;1.55;;;;;;;8.37;82.82;99433.78;4990702;28;20997;-59
2023/01/15 01:03:04;;;;;;;3.03;1.20;;;;;;;8.36;82.72;99422.44;4989737;28;20075;-52
2023/01/15 01:05:30;;;;;;;3.45;1.27;;;;;;;8.40;82.68;99436.16;4986468;28;20102;-52
2023/01/15 01:07:58;;;;;;;2.03;0.98;;;;;;;8.40;82.52;99423.06;4981210;28;20612;-52
2023/01/15 01:10:24;;;;;;;2.47;1.20;;;;;;;8.41;82.79;99421.28;4985318;28;20534;-53
2023/01/15 01:12:51;;;;;;;7.35;1.40;;;;;;;8.44;82.64;99424.53;4991267;28;20125;-52
2023/01/15 01:15:20;;;;;;;2.17;0.90;;;;;;;8.45;82.65;99425.38;4985203;28;20079;-57
2023/01/15 01:17:46;;;;;;;2.40;1.30;;;;;;;8.44;82.72;99432.38;4986805;28;20097;-57
2023/01/15 01:20:13;;;;;;;2.40;1.15;;;;;;;8.46;82.50;99427.88;4987523;28;20437;-52
2023/01/15 01:22:39;;;;;;;3.42;1.75;;;;;;;8.45;82.34;99423.59;4990565;28;20078;-57
2023/01/15 01:25:05;;;;;;;2.35;0.98;;;;;;;8.45;82.46;99428.81;4982963;28;20091;-53
2023/01/15 01:27:31;;;;;;;3.20;1.33;;;;;;;8.47;82.40;99420.88;4987797;28;20074;-60
2023/01/15 01:29:56;;;;;;;4.85;1.52;;;;;;;8.48;82.20;99418.16;4987369;28;20102;-53
2023/01/15 01:32:22;;;;;;;3.55;1.38;;;;;;;8.49;82.42;99413.75;4989890;28;20110;-52
2023/01/15 01:34:47;;;;;;;3.03;1.05;;;;;;;8.50;82.21;99397.91;4988632;28;20093;-55
2023/01/15 01:37:13;;;;;;;2.25;0.95;;;;;;;8.53;82.34;99400.34;4992881;28;20091;-51
2023/01/15 01:39:38;;;;;;;2.00;1.00;;;;;;;8.57;82.22;99392.22;4985734;28;20107;-55
2023/01/15 01:42:11;;;;;;;1.63;0.98;;;;;;;8.56;82.27;99394.03;4986856;28;20082;-56
2023/01/15 01:44:36;;;;;;;4.25;1.05;;;;;;;8.58;82.15;99404.38;4987942;28;20078;-53
2023/01/15 01:47:06;;;;;;;2.90;1.02;;;;;;;8.63;81.88;99397.88;4991604;28;20090;-56
2023/01/15 01:49:32;;;;;;;6.65;2.83;;;;;;;8.64;82.05;99403.97;4994674;28;20110;-53
2023/01/15 01:52:05;;;;;;;3.22;0.98;;;;;;;8.63;82.06;99408.34;4992449;28;20133;-56
2023/01/15 01:54:34;;;;;;;2.35;0.80;;;;;;;8.65;82.02;99408.28;4987264;28;20549;-54
2023/01/15 01:57:01;;;;;;;1.55;0.75;;;;;;;8.66;81.96;99409.94;4989736;28;20079;-54
2023/01/15 01:59:28;;;;;;;0.98;0.50;;;;;;;8.69;81.70;99410.56;4990446;28;20129;-54
2023/01/15 02:01:54;;;;;;;2.33;0.70;;;;;;;8.72;81.92;99409.50;4985627;28;20114;-54
2023/01/15 02:04:22;;;;;;;2.15;0.70;;;;;;;8.75;81.61;99404.03;4992019;28;20111;-55
2023/01/15 02:06:50;;;;;;;7.22;1.30;;;;;;;8.76;81.57;99382.09;4989957;28;20144;-55
2023/01/15 02:09:15;;;;;;;1.95;0.93;;;;;;;8.78;81.48;99379.34;4989580;28;20103;-54
2023/01/15 02:11:41;;;;;;;0.93;0.57;;;;;;;8.77;81.47;99369.84;4988333;28;20169;-55
2023/01/15 02:14:19;;;;;;;2.33;0.70;;;;;;;8.77;81.50;99360.19;4991607;28;20090;-54
2023/01/15 02:16:59;;;;;;;1.25;0.63;;;;;;;8.80;81.47;99386.19;4987862;28;20077;-57
2023/01/15 02:19:40;;;;;;;1.90;0.80;;;;;;;8.83;81.47;99391.22;4988054;28;21412;-54
2023/01/15 02:22:53;;;;;;;1.00;0.57;;;;;;;8.85;81.47;99394.53;4993467;28;20079;-54
2023/01/15 02:25:44;;;;;;;5.38;1.90;;;;;;;8.89;81.30;99399.56;4994468;28;20511;-57
2023/01/15 02:28:20;;;;;;;6.43;1.95;;;;;;;8.94;81.10;99407.97;4996337;28;20169;-55
2023/01/15 02:30:56;;;;;;;2.35;0.73;;;;;;;8.96;81.06;99406.06;4988672;28;20165;-54
2023/01/15 02:33:36;;;;;;;2.40;0.40;;;;;;;8.98;81.08;99386.63;4984930;28;20133;-54
2023/01/15 02:36:05;;;;;;;1.25;0.60;;;;;;;9.03;80.81;99391.53;4988715;28;20553;-54
2023/01/15 02:38:45;;;;;;;1.33;0.65;;;;;;;9.02;80.78;99395.13;4991149;28;20148;-54
2023/01/15 02:41:16;;;;;;;1.90;0.60;;;;;;;9.05;80.79;99384.41;4984230;28;20085;-54
2023/01/15 02:43:46;;;;;;;1.05;0.40;;;;;;;9.04;80.87;99395.03;4985313;28;20074;-55
2023/01/15 02:46:15;;;;;;;2.88;0.60;;;;;;;9.02;80.83;99384.63;4984392;28;20094;-54
2023/01/15 02:48:45;;;;;;;1.08;0.52;;;;;;;9.03;80.85;99383.66;4991050;28;20124;-55
2023/01/15 02:51:14;;;;;;;1.73;0.50;;;;;;;9.04;80.93;99379.28;4989230;28;20105;-54
2023/01/15 02:53:42;;;;;;;3.30;0.90;;;;;;;9.06;80.93;99383.44;4982708;28;21345;-55
2023/01/15 02:56:13;;;;;;;1.58;0.40;;;;;;;9.08;80.87;99376.31;4985503;28;20118;-54
2023/01/15 02:58:42;;;;;;;0.60;0.40;;;;;;;9.07;80.67;99376.44;4984763;28;20492;-54
2023/01/15 03:01:15;;;;;;;1.55;0.50;;;;;;;9.05;80.98;99386.19;4987295;28;20078;-55
2023/01/15 03:03:59;;;;;;;2.35;0.80;;;;;;;9.03;80.97;99375.78;4992654;28;20157;-55
2023/01/15 03:06:25;;;;;;;2.05;0.68;;;;;;;9.03;81.08;99388.91;4992507;28;20117;-55
2023/01/15 03:08:50;;;;;;;1.55;0.50;;;;;;;9.03;81.08;99388.91;4994724;28;20118;-55
2023/01/15 03:11:18;;;;;;;0.95;0.57;;;;;;;9.04;81.06;99380.09;4993533;28;20075;-56
2023/01/15 03:14:16;;;;;;;1.23;0.70;;;;;;;9.03;81.21;99378.41;4983656;28;20169;-54
2023/01/15 03:17:00;;;;;;;1.80;0.47;;;;;;;9.02;81.30;99378.53;4989255;28;20090;-55
2023/01/15 03:19:55;;;;;;;1.02;0.60;;;;;;;8.98;81.61;99388.44;5005025;28;20121;-55
2023/01/15 03:22:32;;;;;;;1.00;0.50;;;;;;;8.99;81.31;99379.63;4988182;28;20099;-56
2023/01/15 03:25:23;;;;;;;3.33;0.63;;;;;;;8.98;81.82;99377.94;4994483;28;20540;-55
2023/01/15 03:27:51;;;;;;;0.85;0.60;;;;;;;8.96;82.02;99377.22;4989300;28;20095;-55
2023/01/15 03:30:19;;;;;;;1.05;0.45;;;;;;;8.95;82.15;99378.16;4987196;28;20075;-56
2023/01/15 03:32:46;;;;;;;0.63;0.40;;;;;;;8.92;82.29;99366.13;4987651;28;20094;-57
2023/01/15 03:35:42;;;;;;;1.40;0.70;;;;;;;8.90;82.33;99364.53;4986870;28;20090;-55
2023/01/15 03:38:07;;;;;;;1.13;0.50;;;;;;;8.89;82.53;99368.09;4993829;28;21413;-55
2023/01/15 03:40:37;;;;;;;1.48;0.70;;;;;;;8.89;82.48;99363.72;4991674;28;20153;-55
2023/01/15 03:45:57;;;;;;;2.00;0.80;;;;;;;8.83;82.71;99357.13;4984819;28;20142;-57
2023/01/15 03:48:30;;;;;;;0.93;0.52;;;;;;;8.84;83.07;99361.44;4989073;28;20098;-54
2023/01/15 03:51:31;;;;;;;1.25;0.65;;;;;;;8.83;83.07;99369.38;4987044;28;20085;-56
2023/01/15 03:53:59;;;;;;;1.40;0.60;;;;;;;8.85;83.22;99391.91;4982680;28;20168;-55
2023/01/15 03:57:00;;;;;;;1.40;0.77;;;;;;;8.84;83.17;99371.91;4985267;28;20493;-55
2023/01/15 03:59:34;;;;;;;3.05;0.70;;;;;;;8.84;83.14;99365.81;4987114;28;20217;-57
2023/01/15 04:02:02;;;;;;;1.88;0.88;;;;;;;8.84;83.26;99365.81;4988783;28;20078;-57
2023/01/15 04:04:28;;;;;;;1.67;0.60;;;;;;;8.81;83.35;99371.28;4988428;28;20075;-54
2023/01/15 04:06:54;;;;;;;1.73;0.75;;;;;;;8.82;83.44;99367.72;4989344;28;20098;-55
2023/01/15 04:09:20;;;;;;;3.88;0.88;;;;;;;8.81;83.47;99373.91;4986866;28;20597;-58
2023/01/15 04:11:46;;;;;;;1.40;0.70;;;;;;;8.82;83.63;99378.19;4982017;28;20090;-56
2023/01/15 04:14:14;;;;;;;1.30;0.60;;;;;;;8.82;83.62;99381.69;4991043;28;20091;-56
2023/01/15 04:16:40;;;;;;;2.10;0.65;;;;;;;8.83;83.62;99385.97;4989025;28;20165;-54
2023/01/15 04:19:05;;;;;;;1.25;0.80;;;;;;;8.84;83.56;99387.66;4985967;28;20182;-56
2023/01/15 04:21:31;;;;;;;4.75;0.60;;;;;;;8.85;83.68;99402.41;4989455;28;20077;-55
2023/01/15 04:23:56;;;;;;;2.78;0.60;;;;;;;8.89;83.63;99446.78;4988925;28;20441;-55
2023/01/15 04:26:22;;;;;;;1.95;0.40;;;;;;;8.87;83.69;99432.94;4992422;28;20118;-56
2023/01/15 04:28:47;;;;;;;0.63;0.30;;;;;;;8.81;83.51;99437.72;4987324;28;20094;-55
2023/01/15 04:31:13;;;;;;;0.65;0.32;;;;;;;8.74;83.20;99433.81;4991565;28;20077;-56
2023/01/15 04:33:39;;;;;;;0.60;0.30;;;;;;;8.69;83.18;99438.59;4988655;28;20086;-56
2023/01/15 04:36:05;;;;;;;1.20;0.50;;;;;;;8.63;82.70;99444.25;4990420;28;20094;-55
2023/01/15 04:38:31;;;;;;;2.08;0.10;;;;;;;8.53;82.15;99458.00;4988032;28;20098;-56
2023/01/15 04:46:29;;;;;;;1.95;0.38;;;;;;;8.19;81.56;99457.69;4983449;28;20104;-57
2023/01/15 04:48:54;;;;;;;0.95;0.10;;;;;;;7.91;81.28;99477.03;4985182;28;20209;-53
2023/01/15 04:51:20;;;;;;;0.55;0.20;;;;;;;7.59;81.45;99483.47;4985031;28;20078;-56
2023/01/15 04:53:45;;;;;;;1.52;0.30;;;;;;;7.30;82.31;99462.66;4982966;28;20102;-54
2023/01/15 04:58:40;;;;;;;1.75;0.28;;;;;;;6.85;83.67;99483.78;4978736;28;20123;-59
2023/01/15 05:01:11;;;;;;;1.60;0.65;;;;;;;6.69;83.45;99478.69;4996934;28;20647;-57
2023/01/15 05:03:37;;;;;;;1.55;0.40;;;;;;;6.55;83.56;99487.34;4985822;28;20617;-59
2023/01/15 05:06:03;;;;;;;0.68;0.30;;;;;;;6.46;83.96;99487.06;4981193;28;20095;-57
2023/01/15 05:08:28;;;;;;;0.52;0.30;;;;;;;6.34;83.65;99494.72;4985185;28;20090;-59
2023/01/15 05:10:54;;;;;;;2.53;0.55;;;;;;;6.29;83.80;99499.38;4978250;28;20075;-59
2023/01/15 05:13:19;;;;;;;2.40;0.30;;;;;;;6.23;83.95;99482.31;4982662;28;20195;-60
2023/01/15 05:15:47;;;;;;;3.00;0.40;;;;;;;6.21;83.89;99496.41;4988197;28;20075;-60
2023/01/15 05:18:13;;;;;;;0.63;0.30;;;;;;;6.19;83.84;99495.66;4988479;28;20168;-58
2023/01/15 05:20:42;;;;;;;3.17;0.30;;;;;;;6.19;83.83;99501.72;4987892;28;20089;-59
2023/01/15 05:23:08;;;;;;;4.50;1.05;;;;;;;6.19;83.39;99511.31;4988468;28;20238;-56
2023/01/15 05:25:37;;;;;;;0.20;0.20;;;;;;;6.19;83.69;99512.19;4986354;28;20205;-56
2023/01/15 05:28:02;;;;;;;1.20;0.60;;;;;;;6.18;82.80;99515.72;4983367;28;20097;-57
2023/01/15 05:30:28;;;;;;;1.73;0.28;;;;;;;6.15;82.64;99510.66;4984564;28;20095;-58
2023/01/15 05:33:02;;;;;;;0.40;0.20;;;;;;;6.13;81.79;99509.06;4991001;28;20086;-55
2023/01/15 05:35:28;;;;;;;1.13;0.38;;;;;;;6.13;82.01;99507.31;4987119;28;20070;-56
2023/01/15 05:37:53;;;;;;;0.17;0.17;;;;;;;6.14;81.92;99513.34;4993116;28;20106;-60
2023/01/15 05:40:18;;;;;;;1.38;0.40;;;;;;;6.14;81.61;99523.78;4986628;28;20084;-60
2023/01/15 05:42:44;;;;;;;2.03;0.30;;;;;;;6.14;81.04;99518.56;4984874;28;20091;-59
2023/01/15 05:45:10;;;;;;;0.20;0.20;;;;;;;6.12;81.13;99510.84;4989396;28;20079;-57
2023/01/15 05:47:35;;;;;;;3.85;0.30;;;;;;;6.12;80.80;99516.06;4990629;28;20107;-55
2023/01/15 05:50:01;;;;;;;1.83;0.30;;;;;;;6.15;80.96;99512.41;4987991;28;20087;-58
2023/01/15 05:52:26;;;;;;;2.38;0.70;;;;;;;6.19;81.69;99521.75;4989963;28;20086;-60
2023/01/15 05:54:52;;;;;;;6.68;0.73;;;;;;;6.20;80.75;99515.63;4981354;28;20136;-56
2023/01/15 05:57:17;;;;;;;0.80;0.20;;;;;;;6.22;81.08;99521.59;4980743;28;20158;-62
2023/01/15 05:59:43;;;;;;;2.30;0.43;;;;;;;6.25;80.30;99521.41;4983730;28;20438;-56
2023/01/15 06:02:08;;;;;;;1.05;0.28;;;;;;;6.28;80.44;99523.81;4986982;28;20466;-57
2023/01/15 06:04:34;;;;;;;1.27;0.28;;;;;;;6.30;80.06;99513.28;4992492;28;20169;-59
2023/01/15 06:06:59;;;;;;;1.00;0.40;;;;;;;6.31;79.69;99502.75;4988183;28;20240;-59
2023/01/15 06:09:26;;;;;;;1.33;0.40;;;;;;;6.34;79.50;99512.19;4983348;28;20079;-60
2023/01/15 06:11:53;;;;;;;2.88;0.50;;;;;;;6.36;79.50;99508.53;4982845;28;20079;-60
2023/01/15 06:14:18;;;;;;;0.30;0.22;;;;;;;6.40;79.57;99520.50;4984264;28;20085;-58
2023/01/15 06:16:44;;;;;;;2.67;0.30;;;;;;;6.43;79.35;99513.41;4988912;28;20102;-57
2023/01/15 06:19:11;;;;;;;2.35;0.30;;;;;;;6.43;78.61;99534.31;4991407;28;20152;-57
2023/01/15 06:21:36;;;;;;;1.38;0.40;;;;;;;6.42;78.23;99512.56;4992062;28;20121;-58
2023/01/15 06:24:02;;;;;;;1.17;0.38;;;;;;;6.39;78.53;99508.38;4991620;28;20103;-57
2023/01/15 06:26:28;;;;;;;5.50;0.57;;;;;;;6.40;78.38;99525.72;4993485;28;20114;-55
2023/01/15 06:28:56;;;;;;;1.45;0.40;;;;;;;6.40;78.33;99530.09;4989012;28;20082;-59
2023/01/15 06:31:25;;;;;;;2.28;0.75;;;;;;;6.42;78.50;99522.19;4993007;28;20097;-56
2023/01/15 06:33:51;;;;;;;0.80;0.20;;;;;;;6.43;78.54;99526.47;4985724;28;20082;-58
2023/01/15 06:36:22;;;;;;;1.55;0.50;;;;;;;6.44;78.48;99525.53;4987902;28;20079;-58
2023/01/15 06:38:48;;;;;;;0.50;0.33;;;;;;;6.46;78.12;99527.13;4987966;28;20079;-59
2023/01/15 06:49:34;;;;;;;1.63;0.30;;;;;;;6.50;77.54;99526.03;4990098;28;20125;-60
2023/01/15 06:51:59;;;;;;;0.52;0.13;;;;;;;6.51;77.37;99547.75;4993577;28;20091;-58
2023/01/15 06:54:25;;;;;;;0.35;0.22;;;;;;;6.51;77.09;99542.53;4988064;28;20078;-56
2023/01/15 06:56:51;;;;;;;2.97;0.20;;;;;;;6.50;77.12;99551.28;4989134;28;20191;-60
2023/01/15 06:59:17;;;;;;;0.60;0.28;;;;;;;6.52;77.52;99549.44;4992196;28;20124;-58
2023/01/15 07:01:52;;;;;;;1.52;0.38;;;;;;;6.52;77.30;99549.44;4986428;28;20087;-59
2023/01/15 07:04:17;;;;;;;2.35;0.30;;;;;;;6.53;77.71;99562.41;4980443;28;20089;-61
2023/01/15 07:06:43;;;;;;;2.15;0.40;;;;;;;6.55;77.43;99554.50;4984959;28;20107;-59
2023/01/15 07:09:09;;;;;;;3.65;0.35;;;;;;;6.56;77.58;99530.03;4983196;28;20086;-57
2023/01/15 07:11:34;;;;;;;2.72;0.52;;;;;;;6.55;77.34;99520.50;4984844;28;20086;-56
2023/01/15 07:14:06;;;;;;;4.05;1.25;;;;;;;6.54;77.41;99521.44;4984772;28;20152;-61
2023/01/15 07:16:32;;;;;;;4.30;1.07;;;;;;;6.54;77.64;99521.44;4987340;28;20545;-59
2023/01/15 07:18:58;;;;;;;1.05;0.50;;;;;;;6.54;77.80;99511.00;4986420;28;20090;-56
2023/01/15 07:21:24;;;;;;;1.77;0.40;;;;;;;6.55;77.87;99520.50;4985726;28;20086;-57
2023/01/15 07:23:49;;;;;;;1.20;0.40;;;;;;;6.57;77.65;99523.88;4985174;28;20117;-59
2023/01/15 07:26:15;;;;;;;0.38;0.30;;;;;;;6.56;78.04;99527.41;4983293;28;20118;-63
2023/01/15 07:28:40;;;;;;;4.55;0.65;;;;;;;6.56;77.59;99527.41;4982647;28;20130;-60
2023/01/15 07:31:06;;;;;;;4.43;0.70;;;;;;;6.54;77.98;99526.66;4982209;28;20512;-60
2023/01/15 07:33:32;;;;;;;3.95;0.52;;;;;;;6.54;78.09;99537.94;4988024;28;20485;-60
2023/01/15 07:35:57;;;;;;;1.58;0.57;;;;;;;6.54;77.71;99530.09;4989267;28;20078;-59
2023/01/15 07:38:22;;;;;;;1.52;0.50;;;;;;;6.55;77.98;99546.66;4982153;28;20134;-57
2023/01/15 07:49:44;;;;;;;2.63;0.60;;;;;;;6.53;78.07;99551.94;4980499;28;20075;-57
2023/01/15 07:51:45;;;;;;;3.20;0.82;;;;;;;6.46;78.14;99539.34;4996160;28;20089;-59
2023/01/15 07:54:11;;;;;;;6.95;1.17;;;;;;;6.45;78.11;99537.66;4985057;28;20087;-58
2023/01/15 07:56:36;;;;;;;4.85;1.60;;;;;;;6.45;78.29;99533.28;4985244;28;20094;-58
2023/01/15 07:59:02;;;;;;;4.20;1.10;;;;;;;6.47;78.30;99530.56;4984591;28;20075;-57
2023/01/15 08:01:28;;;;;;;4.82;1.13;;;;;;;6.47;78.18;99543.63;4987152;28;20110;-59
2023/01/15 08:03:53;;;;;;;2.55;1.00;;;;;;;6.49;78.08;99549.63;4990790;28;20086;-57
2023/01/15 08:06:18;;;;;;;4.35;1.15;;;;;;;6.49;78.15;99555.69;4987262;28;20154;-56
2023/01/15 08:08:44;;;;;;;5.35;1.70;;;;;;;6.51;77.95;99558.22;4983859;28;20094;-60
2023/01/15 08:16:38;;;;;;;7.15;2.03;;;;;;;6.47;78.03;99561.94;4991811;28;20097;-55
2023/01/15 08:19:03;;;;;;;4.60;2.20;;;;;;;6.47;78.43;99561.94;4990682;28;20082;-55
2023/01/15 08:21:29;;;;;;;5.15;1.40;;;;;;;6.50;78.09;99561.75;4988159;28;20125;-58
2023/01/15 08:23:54;;;;;;;2.50;0.75;;;;;;;6.51;77.97;99559.03;4982637;28;20106;-59
2023/01/15 08:26:20;;;;;;;3.67;1.20;;;;;;;6.51;77.95;99566.03;4991549;28;20083;-56
2023/01/15 08:28:45;;;;;;;5.97;2.10;;;;;;;6.53;77.71;99566.81;4991103;28;20082;-56
2023/01/15 08:31:10;;;;;;;2.60;1.23;;;;;;;6.52;77.62;99572.97;4994633;28;20094;-59
2023/01/15 08:33:36;;;;;;;4.20;1.15;;;;;;;6.54;77.53;99568.47;4993706;28;20079;-57
2023/01/15 08:36:02;;;;;;;4.97;0.93;;;;;;;6.56;77.69;99569.25;4991212;28;20083;-61
2023/01/15 08:38:27;;;;;;;3.20;1.35;;;;;;;6.57;77.58;99568.31;4984030;28;20128;-59
2023/01/15 08:41:02;;;;;;;5.25;2.00;;;;;;;6.55;77.31;99560.53;4986230;28;20521;-55
2023/01/15 08:43:30;;;;;;;4.53;1.13;;;;;;;6.56;77.21;99566.63;5003063;28;20126;-56
2023/01/15 08:45:57;;;;;;;4.53;1.00;;;;;;;6.55;76.99;99557.94;4987006;28;20082;-57
2023/01/15 08:48:23;;;;;;;2.92;0.77;;;;;;;6.58;77.02;99558.69;4965100;28;20136;-59
2023/01/15 08:50:49;;;;;;;4.88;0.88;;;;;;;6.58;76.82;99553.44;4976966;28;20519;-58
2023/01/15 08:53:15;;;;;;;2.17;0.90;;;;;;;6.61;76.53;99554.09;4980772;28;20074;-57
2023/01/15 08:55:40;;;;;;;12.98;3.10;;;;;;;6.61;76.49;99559.31;4975988;28;20070;-57
2023/01/15 08:58:06;;;;;;;5.18;1.42;;;;;;;6.64;76.32;99569.59;4977467;28;20163;-59
2023/01/15 09:00:31;;;;;;;1.83;0.77;;;;;;;6.65;76.82;99573.06;4977276;28;20079;-57
2023/01/15 09:02:57;;;;;;;3.20;1.08;;;;;;;6.65;76.39;99586.16;4983183;28;20075;-56
2023/01/15 09:05:22;;;;;;;1.85;0.98;;;;;;;6.69;76.42;99591.09;4985830;28;20099;-56
2023/01/15 09:07:48;;;;;;;4.03;1.65;;;;;;;6.73;75.98;99575.22;4984226;28;20098;-58
2023/01/15 09:10:14;;;;;;;5.85;1.92;;;;;;;6.75;76.09;99573.34;4984361;28;20169;-56
2023/01/15 09:12:39;;;;;;;2.22;0.95;;;;;;;6.76;75.84;99578.50;4983158;28;20091;-56
2023/01/15 09:15:09;;;;;;;5.53;2.35;;;;;;;6.80;75.83;99584.38;4982172;28;20110;-58
2023/01/15 09:17:39;;;;;;;12.43;5.40;;;;;;;6.84;75.62;99578.03;4982054;28;20110;-58
2023/01/15 09:20:07;;;;;;;2.60;1.15;;;;;;;6.86;75.20;99592.69;4991271;28;20074;-59
2023/01/15 09:22:32;;;;;;;2.33;0.75;;;;;;;6.89;75.28;99598.66;4990719;28;20133;-58
2023/01/15 09:24:58;;;;;;;1.95;0.60;;;;;;;6.91;75.08;99586.34;4984458;28;20087;-56
2023/01/15 09:27:24;;;;;;;2.95;0.80;;;;;;;6.94;75.14;99580.91;4986224;28;20600;-59
2023/01/15 09:29:50;;;;;;;1.85;0.70;;;;;;;6.96;75.38;99592.09;4976079;28;20098;-57
2023/01/15 09:32:15;;;;;;;3.15;0.70;;;;;;;6.99;75.13;99598.00;4982501;28;20086;-57
2023/01/15 09:34:41;;;;;;;1.70;0.80;;;;;;;7.00;75.04;99593.59;4969422;28;20095;-57
2023/01/15 09:37:07;;;;;;;5.97;2.65;;;;;;;7.02;75.06;99591.75;4975889;28;20100;-59
2023/01/15 09:39:41;;;;;;;2.08;0.82;;;;;;;7.06;75.03;99601.09;4977937;28;20180;-58
2023/01/15 09:42:47;;;;;;;1.33;0.73;;;;;;;7.07;75.06;99599.28;4973223;28;20073;-56
2023/01/15 09:45:19;;;;;;;6.20;1.67;;;;;;;7.10;74.88;99599.13;4979281;28;20238;-59
2023/01/15 09:48:16;;;;;;;10.15;2.15;;;;;;;7.10;74.33;99597.34;4977354;28;20141;-59
2023/01/15 09:51:01;;;;;;;13.75;5.30;;;;;;;7.09;74.58;99593.06;4973470;28;20419;-60
2023/01/15 09:53:32;;;;;;;9.38;3.75;;;;;;;7.13;74.66;99591.91;4983928;28;20079;-59
2023/01/15 09:56:01;;;;;;;4.47;0.90;;;;;;;7.15;74.56;99587.44;4981004;28;20106;-63
2023/01/15 09:58:34;;;;;;;3.90;1.08;;;;;;;7.17;74.39;99588.19;4984132;28;20097;-57
2023/01/15 10:01:00;;;;;;;4.50;1.30;;;;;;;7.21;74.19;99593.22;4985101;28;20185;-55
2023/01/15 10:03:35;;;;;;;4.80;1.58;;;;;;;7.26;74.47;99604.25;4988610;28;20527;-59
2023/01/15 10:06:16;;;;;;;3.63;1.00;;;;;;;7.31;74.36;99600.41;4985301;28;20129;-64
2023/01/15 10:08:49;;;;;;;3.47;0.73;;;;;;;7.37;73.89;99593.09;4984685;28;22317;-63
2023/01/15 10:11:14;;;;;;;2.88;0.90;;;;;;;7.38;73.46;99598.25;4984456;28;20082;-60
2023/01/15 10:13:59;;;;;;;5.10;0.68;;;;;;;7.39;73.40;99599.94;4988351;28;20684;-59
2023/01/15 10:16:28;;;;;;;4.68;1.23;;;;;;;7.39;72.89;99602.56;4990668;28;20082;-59
2023/01/15 10:18:59;;;;;;;2.47;0.45;;;;;;;7.38;72.75;99600.00;4990830;28;20078;-58
2023/01/15 10:21:50;;;;;;;4.45;0.70;;;;;;;7.38;72.74;99606.09;4982790;28;20113;-59
2023/01/15 10:24:49;;;;;;;3.95;1.38;;;;;;;7.38;72.42;99619.19;4959941;28;20075;-57
2023/01/15 10:27:22;;;;;;;1.70;0.70;;;;;;;7.36;72.24;99618.44;4977834;28;20202;-61
2023/01/15 10:29:58;;;;;;;2.72;0.73;;;;;;;7.38;72.02;99598.25;4983556;28;20082;-58
2023/01/15 10:32:57;;;;;;;1.75;0.88;;;;;;;7.40;71.87;99599.00;4989272;28;20066;-59
2023/01/15 10:35:50;;;;;;;3.15;0.63;;;;;;;7.39;71.59;99588.59;4976802;28;20164;-58
2023/01/15 10:38:27;;;;;;;4.07;0.95;;;;;;;7.37;71.51;99590.47;4982528;28;20118;-59
2023/01/15 10:41:18;;;;;;;3.08;0.65;;;;;;;7.31;71.43;99584.72;4982713;28;20078;-59
2023/01/15 10:43:53;;;;;;;4.57;1.27;;;;;;;7.33;71.48;99582.81;4977574;28;20107;-60
2023/01/15 10:46:25;;;;;;;4.90;1.02;;;;;;;7.38;71.36;99589.53;4983472;28;20855;-60
2023/01/15 10:49:05;;;;;;;3.92;0.70;;;;;;;7.42;70.75;99585.81;4983547;28;20564;-58
2023/01/15 10:51:43;;;;;;;6.63;1.02;;;;;;;7.47;70.56;99583.75;4983355;28;20078;-57
2023/01/15 10:54:46;;;;;;;3.22;0.70;;;;;;;7.53;69.68;99582.50;4980005;28;20501;-57
2023/01/15 10:59:59;;;;;;;3.22;0.70;;;;;;;7.70;69.66;99587.53;4978370;28;20553;-52
2023/01/15 11:02:36;;;;;;;0.57;0.35;;;;;;;7.77;68.93;99586.16;4985673;28;20071;-54
2023/01/15 11:05:04;;;;;;;3.22;1.23;;;;;;;7.83;69.11;99592.78;4982559;28;20074;-53
2023/01/15 11:07:51;;;;;;;1.73;0.73;;;;;;;7.84;68.63;99586.59;5006523;28;20580;-53
2023/01/15 11:10:26;;;;;;;2.95;1.77;;;;;;;7.90;69.30;99577.50;4991795;28;20129;-54
2023/01/15 11:21:29;;;;;;;4.07;0.70;;;;;;;7.88;68.63;99577.63;4991042;28;20109;-53
2023/01/15 11:24:00;;;;;;;3.58;0.88;;;;;;;7.94;67.92;99577.19;4991108;28;20091;-53
2023/01/15 11:26:31;;;;;;;3.13;0.40;;;;;;;8.02;67.87;99600.28;4990312;28;20094;-52
2023/01/15 11:29:00;;;;;;;3.20;1.73;;;;;;;8.04;67.23;99594.97;4985966;28;20137;-52
2023/01/15 11:31:44;;;;;;;2.63;0.90;;;;;;;8.01;66.73;99582.91;4982298;28;20341;-53
2023/01/15 11:34:21;;;;;;;3.33;1.20;;;;;;;8.07;67.24;99587.72;5003854;28;20093;-53
2023/01/15 11:36:47;;;;;;;10.80;1.60;;;;;;;8.13;67.47;99590.91;4981573;28;20067;-52
2023/01/15 11:39:27;;;;;;;3.92;1.20;;;;;;;8.17;67.15;99595.81;4985146;28;20103;-53
2023/01/15 11:51:00;;;;;;;1.30;0.40;;;;;;;8.02;66.28;99595.03;4985109;28;20117;-52
2023/01/15 11:53:40;;;;;;;4.82;0.95;;;;;;;8.03;66.85;99603.75;4987571;28;20087;-53
2023/01/15 11:56:16;;;;;;;1.75;0.60;;;;;;;8.03;66.84;99595.91;4991898;28;20078;-53
2023/01/15 11:58:49;;;;;;;4.63;1.20;;;;;;;8.03;66.94;99601.13;4987518;28;20094;-52
2023/01/15 12:01:34;;;;;;;3.03;0.98;;;;;;;8.06;67.09;99593.91;4991107;28;20085;-54
2023/01/15 12:04:04;;;;;;;1.73;0.60;;;;;;;8.12;67.49;99590.03;4989751;28;20525;-52
2023/01/15 12:06:33;;;;;;;4.22;1.90;;;;;;;8.12;67.14;99586.59;4989737;28;20122;-56
2023/01/15 12:09:03;;;;;;;3.30;0.80;;;;;;;8.16;67.00;99578.41;4990187;28;20196;-53
2023/01/15 12:11:37;;;;;;;4.78;1.42;;;;;;;8.21;66.42;99589.44;4984644;28;20163;-54
2023/01/15 12:14:28;;;;;;;6.40;1.50;;;;;;;8.20;66.55;99572.03;4988098;28;20106;-53
2023/01/15 12:17:05;;;;;;;2.50;0.88;;;;;;;8.16;66.54;99567.94;4982981;28;20538;-53
2023/01/15 12:20:04;;;;;;;4.00;0.77;;;;;;;8.13;65.91;99576.00;4980939;28;20110;-53
2023/01/15 12:22:51;;;;;;;3.67;0.90;;;;;;;8.15;66.37;99584.59;4969351;28;20094;-54
2023/01/15 12:25:45;;;;;;;3.30;0.80;;;;;;;8.17;66.34;99584.50;4972311;28;21113;-52
2023/01/15 12:28:23;;;;;;;3.20;0.63;;;;;;;8.21;66.42;99583.34;4983247;28;20087;-55
2023/01/15 12:31:15;;;;;;;1.85;0.60;;;;;;;8.21;66.21;99570.25;4982599;28;20086;-52
2023/01/15 12:34:38;;;;;;;2.05;0.50;;;;;;;8.19;65.05;99567.75;4994868;28;20097;-53
2023/01/15 12:37:21;;;;;;;2.88;0.50;;;;;;;8.24;65.61;99572.66;4948058;28;20075;-53
2023/01/15 12:39:56;;;;;;;2.40;0.75;;;;;;;8.19;65.35;99586.09;4938174;28;20092;-54
2023/01/15 12:45:16;;;;;;;1.13;0.25;;;;;;;8.14;64.86;99588.16;4978372;28;20121;-52
2023/01/15 12:48:01;;;;;;;1.13;0.55;;;;;;;8.08;64.54;99583.34;4973655;28;20138;-54
2023/01/15 12:50:45;;;;;;;4.55;1.05;;;;;;;8.06;64.52;99574.75;4974923;28;20093;-56
2023/01/15 12:53:40;;;;;;;2.03;0.50;;;;;;;8.02;64.91;99570.63;4977955;28;20571;-52
2023/01/15 12:56:08;;;;;;;2.00;0.80;;;;;;;8.04;65.03;99566.97;4980124;28;20121;-53
2023/01/15 12:58:52;;;;;;;3.03;1.10;;;;;;;8.05;64.41;99573.88;4976936;28;20137;-53
2023/01/15 13:01:57;;;;;;;2.25;0.95;;;;;;;8.07;64.23;99584.28;4978624;28;20079;-52